AVR4815 SKBO-SKNV
Flight info
| Callsign | AVR4815 |
|---|---|
| Flight time | 0h 25m |
| Altitude | 20000 |
| Route | LIXAG |
| Aircraft | A320/M-SDE1E2E3GHIM3RWXYZ/LB1 |
Departure
| Time | 2026-04-25 12:01 |
|---|---|
| Airport | El Dorado International Airport (SKBO) |
Arrival
| Time | 2026-04-25 12:27 |
|---|---|
| Airport | Benito Salas Airport (SKNV) |
| Time | Latitude | Longitude | Altitude | Speed | Heading |
|---|---|---|---|---|---|
| 2026-04-25 11:27 | 4.69723 | -74.14613 | 8362 ft | 0 kts | 221° |
| 2026-04-25 11:52 | 4.69728 | -74.14609 | 8361 ft | 4 kts | 220° |
| 2026-04-25 11:52 | 4.69744 | -74.14595 | 8362 ft | 4 kts | 224° |
| 2026-04-25 11:52 | 4.69757 | -74.14589 | 8362 ft | 4 kts | 308° |
| 2026-04-25 11:52 | 4.69760 | -74.14593 | 8361 ft | 4 kts | 306° |
| 2026-04-25 11:53 | 4.69775 | -74.14616 | 8362 ft | 4 kts | 306° |
| 2026-04-25 11:53 | 4.69786 | -74.14630 | 8362 ft | 0 kts | 308° |
| 2026-04-25 11:55 | 4.69791 | -74.14637 | 8361 ft | 5 kts | 308° |
| 2026-04-25 11:55 | 4.69826 | -74.14682 | 8361 ft | 8 kts | 308° |
| 2026-04-25 11:55 | 4.69862 | -74.14731 | 8362 ft | 10 kts | 303° |
| 2026-04-25 11:55 | 4.69905 | -74.14793 | 8361 ft | 12 kts | 306° |
| 2026-04-25 11:56 | 4.69930 | -74.14873 | 8361 ft | 14 kts | 234° |
| 2026-04-25 11:56 | 4.69856 | -74.14943 | 8362 ft | 15 kts | 241° |
| 2026-04-25 11:56 | 4.69898 | -74.15036 | 8362 ft | 16 kts | 302° |
| 2026-04-25 11:56 | 4.69966 | -74.15134 | 8362 ft | 18 kts | 308° |
| 2026-04-25 11:57 | 4.70049 | -74.15240 | 8361 ft | 20 kts | 308° |
| 2026-04-25 11:57 | 4.70140 | -74.15358 | 8361 ft | 22 kts | 307° |
| 2026-04-25 11:57 | 4.70238 | -74.15486 | 8361 ft | 24 kts | 307° |
| 2026-04-25 11:57 | 4.70343 | -74.15624 | 8361 ft | 26 kts | 306° |
| 2026-04-25 11:58 | 4.70445 | -74.15761 | 8361 ft | 24 kts | 308° |
| 2026-04-25 11:58 | 4.70542 | -74.15887 | 8361 ft | 23 kts | 308° |
| 2026-04-25 11:58 | 4.70649 | -74.16028 | 8361 ft | 27 kts | 307° |
| 2026-04-25 11:58 | 4.70769 | -74.16187 | 8361 ft | 29 kts | 306° |
| 2026-04-25 11:59 | 4.70886 | -74.16342 | 8361 ft | 27 kts | 307° |
| 2026-04-25 11:59 | 4.70996 | -74.16486 | 8361 ft | 25 kts | 307° |
| 2026-04-25 11:59 | 4.71098 | -74.16619 | 8360 ft | 23 kts | 307° |
| 2026-04-25 12:00 | 4.71175 | -74.16817 | 8360 ft | 13 kts | 215° |
| 2026-04-25 12:00 | 4.71105 | -74.16866 | 8360 ft | 13 kts | 216° |
| 2026-04-25 12:00 | 4.70808 | -74.16597 | 8360 ft | 83 kts | 127° |
| 2026-04-25 12:01 | 4.70340 | -74.15979 | 8361 ft | 140 kts | 127° |
| 2026-04-25 12:01 | 4.69639 | -74.15054 | 8390 ft | 184 kts | 127° |
| 2026-04-25 12:01 | 4.68867 | -74.14045 | 9028 ft | 185 kts | 126° |
| 2026-04-25 12:01 | 4.68093 | -74.13020 | 9619 ft | 185 kts | 126° |
| 2026-04-25 12:02 | 4.66421 | -74.11072 | 10528 ft | 185 kts | 158° |
| 2026-04-25 12:02 | 4.65194 | -74.10885 | 10962 ft | 183 kts | 192° |
| 2026-04-25 12:02 | 4.64036 | -74.11436 | 11235 ft | 190 kts | 226° |
| 2026-04-25 12:03 | 4.63376 | -74.12609 | 11380 ft | 207 kts | 257° |
| 2026-04-25 12:03 | 4.63066 | -74.14091 | 11520 ft | 228 kts | 258° |
| 2026-04-25 12:03 | 4.62730 | -74.15721 | 11646 ft | 251 kts | 258° |
| 2026-04-25 12:03 | 4.62362 | -74.17509 | 11915 ft | 269 kts | 259° |
| 2026-04-25 12:04 | 4.61976 | -74.19375 | 12528 ft | 277 kts | 259° |
| 2026-04-25 12:04 | 4.61579 | -74.21275 | 13180 ft | 280 kts | 259° |
| 2026-04-25 12:04 | 4.61174 | -74.23205 | 13850 ft | 284 kts | 259° |
| 2026-04-25 12:04 | 4.60763 | -74.25155 | 14517 ft | 287 kts | 258° |
| 2026-04-25 12:05 | 4.60387 | -74.26463 | 14943 ft | 291 kts | 245° |
| 2026-04-25 12:05 | 4.59143 | -74.28081 | 15348 ft | 305 kts | 218° |
| 2026-04-25 12:05 | 4.57340 | -74.29342 | 15476 ft | 327 kts | 213° |
| 2026-04-25 12:05 | 4.55358 | -74.30601 | 15604 ft | 347 kts | 212° |
| 2026-04-25 12:06 | 4.53271 | -74.31882 | 15766 ft | 364 kts | 212° |
| 2026-04-25 12:06 | 4.51082 | -74.33217 | 16206 ft | 371 kts | 212° |
| 2026-04-25 12:06 | 4.48869 | -74.34582 | 16742 ft | 376 kts | 212° |
| 2026-04-25 12:06 | 4.46636 | -74.35978 | 17306 ft | 380 kts | 212° |
| 2026-04-25 12:07 | 4.44385 | -74.37403 | 17894 ft | 383 kts | 212° |
| 2026-04-25 12:07 | 4.42123 | -74.38842 | 18448 ft | 386 kts | 212° |
| 2026-04-25 12:07 | 4.39843 | -74.40295 | 18969 ft | 389 kts | 212° |
| 2026-04-25 12:07 | 4.37539 | -74.41763 | 19478 ft | 393 kts | 212° |
| 2026-04-25 12:08 | 4.35228 | -74.43241 | 19951 ft | 397 kts | 212° |
| 2026-04-25 12:08 | 4.32925 | -74.44714 | 20084 ft | 397 kts | 212° |
| 2026-04-25 12:08 | 4.30599 | -74.46202 | 20087 ft | 396 kts | 212° |
| 2026-04-25 12:08 | 4.28278 | -74.47687 | 20072 ft | 396 kts | 212° |
| 2026-04-25 12:09 | 4.25954 | -74.49176 | 20059 ft | 396 kts | 212° |
| 2026-04-25 12:09 | 4.23629 | -74.50666 | 20045 ft | 396 kts | 212° |
| 2026-04-25 12:09 | 4.21308 | -74.52150 | 20038 ft | 397 kts | 212° |
| 2026-04-25 12:09 | 4.18980 | -74.53639 | 20014 ft | 396 kts | 212° |
| 2026-04-25 12:10 | 4.16660 | -74.55124 | 20011 ft | 396 kts | 212° |
| 2026-04-25 12:10 | 4.14325 | -74.56618 | 20008 ft | 396 kts | 212° |
| 2026-04-25 12:10 | 4.11996 | -74.58107 | 20007 ft | 396 kts | 212° |
| 2026-04-25 12:10 | 4.09671 | -74.59590 | 20004 ft | 396 kts | 212° |
| 2026-04-25 12:11 | 4.07343 | -74.61075 | 20003 ft | 396 kts | 212° |
| 2026-04-25 12:11 | 4.05021 | -74.62558 | 20000 ft | 396 kts | 212° |
| 2026-04-25 12:11 | 4.02691 | -74.64046 | 19996 ft | 396 kts | 212° |
| 2026-04-25 12:11 | 4.00373 | -74.65527 | 19993 ft | 396 kts | 212° |
| 2026-04-25 12:12 | 3.98076 | -74.66993 | 19993 ft | 396 kts | 212° |
| 2026-04-25 12:12 | 3.95752 | -74.68474 | 19992 ft | 396 kts | 212° |
| 2026-04-25 12:12 | 3.93427 | -74.69956 | 19991 ft | 396 kts | 212° |
| 2026-04-25 12:12 | 3.91104 | -74.71436 | 19990 ft | 396 kts | 212° |
| 2026-04-25 12:13 | 3.88790 | -74.72912 | 19854 ft | 390 kts | 212° |
| 2026-04-25 12:13 | 3.86530 | -74.74356 | 19599 ft | 381 kts | 212° |
| 2026-04-25 12:13 | 3.84321 | -74.75770 | 19354 ft | 374 kts | 212° |
| 2026-04-25 12:13 | 3.82137 | -74.77168 | 19104 ft | 372 kts | 212° |
| 2026-04-25 12:14 | 3.79964 | -74.78557 | 18851 ft | 369 kts | 212° |
| 2026-04-25 12:14 | 3.77799 | -74.79936 | 18600 ft | 368 kts | 212° |
| 2026-04-25 12:14 | 3.75644 | -74.81308 | 18351 ft | 365 kts | 212° |
| 2026-04-25 12:14 | 3.73513 | -74.82664 | 17955 ft | 361 kts | 213° |
| 2026-04-25 12:15 | 3.71392 | -74.84017 | 17496 ft | 360 kts | 213° |
| 2026-04-25 12:15 | 3.69282 | -74.85365 | 17037 ft | 359 kts | 213° |
| 2026-04-25 12:15 | 3.67184 | -74.86705 | 16582 ft | 357 kts | 213° |
| 2026-04-25 12:15 | 3.65096 | -74.88038 | 16136 ft | 356 kts | 213° |
| 2026-04-25 12:16 | 3.63014 | -74.89368 | 15696 ft | 354 kts | 213° |
| 2026-04-25 12:16 | 3.60940 | -74.90691 | 15251 ft | 353 kts | 213° |
| 2026-04-25 12:16 | 3.58876 | -74.92009 | 14803 ft | 351 kts | 213° |
| 2026-04-25 12:16 | 3.56817 | -74.93324 | 14364 ft | 349 kts | 213° |
| 2026-04-25 12:17 | 3.54772 | -74.94629 | 13923 ft | 348 kts | 213° |
| 2026-04-25 12:17 | 3.52738 | -74.95926 | 13480 ft | 346 kts | 213° |
| 2026-04-25 12:17 | 3.50716 | -74.97214 | 13033 ft | 343 kts | 213° |
| 2026-04-25 12:17 | 3.48709 | -74.98499 | 12582 ft | 340 kts | 213° |
| 2026-04-25 12:18 | 3.46710 | -74.99771 | 12135 ft | 339 kts | 213° |
| 2026-04-25 12:18 | 3.44725 | -75.01033 | 11682 ft | 337 kts | 213° |
| 2026-04-25 12:18 | 3.42753 | -75.02287 | 11248 ft | 335 kts | 213° |
| 2026-04-25 12:18 | 3.40792 | -75.03536 | 10799 ft | 333 kts | 213° |
| 2026-04-25 12:19 | 3.37572 | -75.05588 | 10193 ft | 324 kts | 213° |
| 2026-04-25 12:19 | 3.35087 | -75.07171 | 10026 ft | 309 kts | 213° |
| 2026-04-25 12:19 | 3.33325 | -75.08297 | 9809 ft | 301 kts | 213° |
| 2026-04-25 12:20 | 3.31561 | -75.09422 | 9267 ft | 298 kts | 213° |
| 2026-04-25 12:20 | 3.29827 | -75.10526 | 8674 ft | 294 kts | 212° |
| 2026-04-25 12:20 | 3.28096 | -75.11626 | 8117 ft | 295 kts | 212° |
| 2026-04-25 12:20 | 3.26382 | -75.12714 | 7562 ft | 288 kts | 212° |
| 2026-04-25 12:21 | 3.24703 | -75.13783 | 7033 ft | 285 kts | 212° |
| 2026-04-25 12:21 | 3.23040 | -75.14844 | 6507 ft | 282 kts | 213° |
| 2026-04-25 12:21 | 3.21398 | -75.15892 | 5983 ft | 279 kts | 212° |
| 2026-04-25 12:21 | 3.19760 | -75.16936 | 5467 ft | 280 kts | 212° |
| 2026-04-25 12:22 | 3.18122 | -75.17980 | 5027 ft | 277 kts | 212° |
| 2026-04-25 12:22 | 3.16484 | -75.19023 | 4564 ft | 277 kts | 212° |
| 2026-04-25 12:22 | 3.14875 | -75.20047 | 4303 ft | 268 kts | 213° |
| 2026-04-25 12:22 | 3.13343 | -75.21026 | 4165 ft | 256 kts | 213° |
| 2026-04-25 12:23 | 3.11879 | -75.21961 | 4050 ft | 242 kts | 213° |
| 2026-04-25 12:23 | 3.10491 | -75.22845 | 3949 ft | 231 kts | 213° |
| 2026-04-25 12:23 | 3.09168 | -75.23688 | 3847 ft | 220 kts | 213° |
| 2026-04-25 12:23 | 3.07907 | -75.24490 | 3751 ft | 210 kts | 213° |
| 2026-04-25 12:24 | 3.06683 | -75.25268 | 3658 ft | 207 kts | 213° |
| 2026-04-25 12:24 | 3.05428 | -75.25968 | 3431 ft | 207 kts | 203° |
| 2026-04-25 12:24 | 3.04096 | -75.26481 | 3199 ft | 202 kts | 200° |
| 2026-04-25 12:24 | 3.02798 | -75.26935 | 2914 ft | 192 kts | 199° |
| 2026-04-25 12:25 | 3.01583 | -75.27346 | 2674 ft | 175 kts | 199° |
| 2026-04-25 12:25 | 3.00489 | -75.27718 | 2450 ft | 159 kts | 199° |
| 2026-04-25 12:25 | 2.99488 | -75.28059 | 2237 ft | 151 kts | 198° |
| 2026-04-25 12:25 | 2.98505 | -75.28397 | 2037 ft | 148 kts | 199° |
| 2026-04-25 12:26 | 2.97540 | -75.28727 | 1860 ft | 146 kts | 198° |
| 2026-04-25 12:26 | 2.96565 | -75.29017 | 1691 ft | 146 kts | 195° |
| 2026-04-25 12:26 | 2.95586 | -75.29265 | 1482 ft | 143 kts | 194° |
| 2026-04-25 12:26 | 2.94784 | -75.29467 | 1459 ft | 79 kts | 194° |
| 2026-04-25 12:27 | 2.94480 | -75.29543 | 1453 ft | 32 kts | 193° |
| 2026-04-25 12:27 | 2.94314 | -75.29578 | 1453 ft | 17 kts | 178° |
| 2026-04-25 12:27 | 2.94265 | -75.29593 | 1452 ft | 3 kts | 281° |
| 2026-04-25 12:27 | 2.94292 | -75.29589 | 1452 ft | 6 kts | 14° |
| 2026-04-25 12:28 | 2.94356 | -75.29573 | 1453 ft | 13 kts | 14° |
| 2026-04-25 12:28 | 2.94457 | -75.29547 | 1455 ft | 16 kts | 14° |
| 2026-04-25 12:28 | 2.94565 | -75.29520 | 1458 ft | 16 kts | 14° |
| 2026-04-25 12:28 | 2.94650 | -75.29471 | 1460 ft | 14 kts | 57° |
| 2026-04-25 12:29 | 2.94668 | -75.29402 | 1460 ft | 9 kts | 108° |
| 2026-04-25 12:29 | 2.94651 | -75.29351 | 1459 ft | 0 kts | 105° |
| 2026-04-25 12:30 | 2.94633 | -75.29337 | 1460 ft | 0 kts | 214° |